sensor_id;sensor_type;location;lat;lon;timestamp;P1;durP1;ratioP1;P2;durP2;ratioP2
30543;SDS011;43388;46.308;4.600;2023-04-03T00:01:33;3.05;;;2.85;;
30543;SDS011;43388;46.308;4.600;2023-04-03T00:04:00;3.50;;;3.30;;
30543;SDS011;43388;46.308;4.600;2023-04-03T00:06:26;3.78;;;3.50;;
30543;SDS011;43388;46.308;4.600;2023-04-03T00:08:52;3.75;;;3.55;;
30543;SDS011;43388;46.308;4.600;2023-04-03T00:11:18;4.63;;;3.20;;
30543;SDS011;43388;46.308;4.600;2023-04-03T00:13:45;3.00;;;2.80;;
30543;SDS011;43388;46.308;4.600;2023-04-03T00:16:11;2.95;;;2.83;;
30543;SDS011;43388;46.308;4.600;2023-04-03T00:18:38;3.45;;;3.25;;
30543;SDS011;43388;46.308;4.600;2023-04-03T00:21:04;3.25;;;3.05;;
30543;SDS011;43388;46.308;4.600;2023-04-03T00:23:30;3.15;;;2.95;;
30543;SDS011;43388;46.308;4.600;2023-04-03T00:25:56;2.72;;;2.63;;
30543;SDS011;43388;46.308;4.600;2023-04-03T00:28:23;2.38;;;2.28;;
30543;SDS011;43388;46.308;4.600;2023-04-03T00:30:49;2.58;;;2.47;;
30543;SDS011;43388;46.308;4.600;2023-04-03T00:33:15;2.58;;;2.47;;
30543;SDS011;43388;46.308;4.600;2023-04-03T00:35:42;2.20;;;2.10;;
30543;SDS011;43388;46.308;4.600;2023-04-03T00:38:08;2.20;;;2.10;;
30543;SDS011;43388;46.308;4.600;2023-04-03T00:40:35;2.72;;;2.63;;
30543;SDS011;43388;46.308;4.600;2023-04-03T00:43:02;2.70;;;2.60;;
30543;SDS011;43388;46.308;4.600;2023-04-03T00:45:32;3.25;;;3.05;;
30543;SDS011;43388;46.308;4.600;2023-04-03T00:47:59;2.90;;;2.80;;
30543;SDS011;43388;46.308;4.600;2023-04-03T00:50:27;3.28;;;3.08;;
30543;SDS011;43388;46.308;4.600;2023-04-03T00:52:54;3.15;;;3.05;;
30543;SDS011;43388;46.308;4.600;2023-04-03T00:55:20;3.05;;;2.88;;
30543;SDS011;43388;46.308;4.600;2023-04-03T00:57:46;3.40;;;3.20;;
30543;SDS011;43388;46.308;4.600;2023-04-03T01:00:14;3.10;;;2.90;;
30543;SDS011;43388;46.308;4.600;2023-04-03T01:02:42;3.25;;;3.05;;
30543;SDS011;43388;46.308;4.600;2023-04-03T01:05:08;3.25;;;3.05;;
30543;SDS011;43388;46.308;4.600;2023-04-03T01:07:35;3.40;;;3.20;;
30543;SDS011;43388;46.308;4.600;2023-04-03T01:10:04;3.63;;;3.42;;
30543;SDS011;43388;46.308;4.600;2023-04-03T01:12:34;4.22;;;3.88;;
30543;SDS011;43388;46.308;4.600;2023-04-03T01:15:03;3.63;;;3.35;;
30543;SDS011;43388;46.308;4.600;2023-04-03T01:17:36;3.72;;;3.53;;
30543;SDS011;43388;46.308;4.600;2023-04-03T01:20:13;5.03;;;4.72;;
30543;SDS011;43388;46.308;4.600;2023-04-03T01:25:13;4.38;;;4.07;;
30543;SDS011;43388;46.308;4.600;2023-04-03T01:27:39;4.38;;;4.10;;
30543;SDS011;43388;46.308;4.600;2023-04-03T01:30:05;3.65;;;3.45;;
30543;SDS011;43388;46.308;4.600;2023-04-03T01:32:32;4.30;;;4.00;;
30543;SDS011;43388;46.308;4.600;2023-04-03T01:34:58;3.97;;;3.67;;
30543;SDS011;43388;46.308;4.600;2023-04-03T01:37:24;4.35;;;4.05;;
30543;SDS011;43388;46.308;4.600;2023-04-03T01:39:50;4.30;;;4.00;;
30543;SDS011;43388;46.308;4.600;2023-04-03T01:42:16;4.85;;;4.55;;
30543;SDS011;43388;46.308;4.600;2023-04-03T01:44:42;4.60;;;4.30;;
30543;SDS011;43388;46.308;4.600;2023-04-03T01:47:09;4.57;;;4.28;;
30543;SDS011;43388;46.308;4.600;2023-04-03T01:49:35;4.63;;;4.18;;
30543;SDS011;43388;46.308;4.600;2023-04-03T01:52:01;4.38;;;4.05;;
30543;SDS011;43388;46.308;4.600;2023-04-03T01:54:27;4.43;;;4.13;;
30543;SDS011;43388;46.308;4.600;2023-04-03T01:56:53;3.88;;;3.58;;
30543;SDS011;43388;46.308;4.600;2023-04-03T01:59:19;4.50;;;4.20;;
30543;SDS011;43388;46.308;4.600;2023-04-03T02:01:45;4.13;;;3.83;;
30543;SDS011;43388;46.308;4.600;2023-04-03T02:04:12;3.78;;;3.53;;
30543;SDS011;43388;46.308;4.600;2023-04-03T02:06:38;3.53;;;3.33;;
30543;SDS011;43388;46.308;4.600;2023-04-03T02:09:04;3.60;;;3.40;;
30543;SDS011;43388;46.308;4.600;2023-04-03T02:11:30;3.58;;;3.33;;
30543;SDS011;43388;46.308;4.600;2023-04-03T02:13:56;3.75;;;3.45;;
30543;SDS011;43388;46.308;4.600;2023-04-03T02:16:22;3.92;;;3.67;;
30543;SDS011;43388;46.308;4.600;2023-04-03T02:18:49;4.03;;;3.83;;
30543;SDS011;43388;46.308;4.600;2023-04-03T02:21:15;3.95;;;3.65;;
30543;SDS011;43388;46.308;4.600;2023-04-03T02:23:41;4.30;;;4.00;;
30543;SDS011;43388;46.308;4.600;2023-04-03T02:26:11;4.65;;;4.28;;
30543;SDS011;43388;46.308;4.600;2023-04-03T02:28:37;5.13;;;4.72;;
30543;SDS011;43388;46.308;4.600;2023-04-03T02:31:03;4.97;;;4.57;;
30543;SDS011;43388;46.308;4.600;2023-04-03T02:33:31;5.30;;;4.80;;
30543;SDS011;43388;46.308;4.600;2023-04-03T02:35:57;5.30;;;4.90;;
30543;SDS011;43388;46.308;4.600;2023-04-03T02:38:23;5.75;;;5.30;;
30543;SDS011;43388;46.308;4.600;2023-04-03T02:40:50;5.93;;;5.43;;
30543;SDS011;43388;46.308;4.600;2023-04-03T02:43:17;7.95;;;5.43;;
30543;SDS011;43388;46.308;4.600;2023-04-03T02:45:43;8.77;;;6.32;;
30543;SDS011;43388;46.308;4.600;2023-04-03T02:48:09;7.43;;;6.72;;
30543;SDS011;43388;46.308;4.600;2023-04-03T02:50:35;7.00;;;6.40;;
30543;SDS011;43388;46.308;4.600;2023-04-03T02:53:01;17.42;;;7.38;;
30543;SDS011;43388;46.308;4.600;2023-04-03T02:55:27;8.32;;;7.53;;
30543;SDS011;43388;46.308;4.600;2023-04-03T02:57:53;8.88;;;8.18;;
30543;SDS011;43388;46.308;4.600;2023-04-03T03:00:19;9.23;;;8.43;;
30543;SDS011;43388;46.308;4.600;2023-04-03T03:02:45;9.75;;;8.75;;
30543;SDS011;43388;46.308;4.600;2023-04-03T03:05:11;9.68;;;8.77;;
30543;SDS011;43388;46.308;4.600;2023-04-03T03:07:37;9.50;;;8.70;;
30543;SDS011;43388;46.308;4.600;2023-04-03T03:10:03;9.45;;;8.55;;
30543;SDS011;43388;46.308;4.600;2023-04-03T03:12:29;10.85;;;9.25;;
30543;SDS011;43388;46.308;4.600;2023-04-03T03:14:55;9.75;;;8.85;;
30543;SDS011;43388;46.308;4.600;2023-04-03T03:17:21;9.45;;;8.63;;
30543;SDS011;43388;46.308;4.600;2023-04-03T03:19:47;10.20;;;9.35;;
30543;SDS011;43388;46.308;4.600;2023-04-03T03:22:14;10.38;;;9.48;;
30543;SDS011;43388;46.308;4.600;2023-04-03T03:24:40;10.25;;;9.35;;
30543;SDS011;43388;46.308;4.600;2023-04-03T03:27:06;9.75;;;8.85;;
30543;SDS011;43388;46.308;4.600;2023-04-03T03:29:32;11.63;;;10.63;;
30543;SDS011;43388;46.308;4.600;2023-04-03T03:31:58;11.63;;;10.50;;
30543;SDS011;43388;46.308;4.600;2023-04-03T03:34:24;13.30;;;12.10;;
30543;SDS011;43388;46.308;4.600;2023-04-03T03:36:50;12.82;;;11.60;;
30543;SDS011;43388;46.308;4.600;2023-04-03T03:39:16;12.15;;;11.05;;
30543;SDS011;43388;46.308;4.600;2023-04-03T03:41:42;13.25;;;11.95;;
30543;SDS011;43388;46.308;4.600;2023-04-03T03:44:08;14.10;;;12.80;;
30543;SDS011;43388;46.308;4.600;2023-04-03T03:46:35;14.07;;;12.73;;
30543;SDS011;43388;46.308;4.600;2023-04-03T03:49:00;13.85;;;12.38;;
30543;SDS011;43388;46.308;4.600;2023-04-03T03:51:26;12.88;;;11.32;;
30543;SDS011;43388;46.308;4.600;2023-04-03T03:53:52;49.25;;;13.55;;
30543;SDS011;43388;46.308;4.600;2023-04-03T03:56:18;50.38;;;11.82;;
30543;SDS011;43388;46.308;4.600;2023-04-03T03:58:45;24.20;;;10.82;;
30543;SDS011;43388;46.308;4.600;2023-04-03T04:01:11;16.67;;;10.60;;
30543;SDS011;43388;46.308;4.600;2023-04-03T04:03:37;10.50;;;9.60;;
30543;SDS011;43388;46.308;4.600;2023-04-03T04:06:03;11.93;;;9.98;;
30543;SDS011;43388;46.308;4.600;2023-04-03T04:08:30;14.98;;;9.93;;
30543;SDS011;43388;46.308;4.600;2023-04-03T04:10:56;28.48;;;10.88;;
30543;SDS011;43388;46.308;4.600;2023-04-03T04:13:22;19.55;;;10.48;;
30543;SDS011;43388;46.308;4.600;2023-04-03T04:15:48;173.82;;;16.02;;
30543;SDS011;43388;46.308;4.600;2023-04-03T04:18:14;42.80;;;11.45;;
30543;SDS011;43388;46.308;4.600;2023-04-03T04:20:40;10.55;;;9.55;;
30543;SDS011;43388;46.308;4.600;2023-04-03T04:23:06;9.73;;;8.82;;
30543;SDS011;43388;46.308;4.600;2023-04-03T04:25:32;12.23;;;9.70;;
30543;SDS011;43388;46.308;4.600;2023-04-03T04:27:58;10.57;;;9.50;;
30543;SDS011;43388;46.308;4.600;2023-04-03T04:30:24;10.02;;;9.00;;
30543;SDS011;43388;46.308;4.600;2023-04-03T04:32:51;9.40;;;8.32;;
30543;SDS011;43388;46.308;4.600;2023-04-03T04:35:17;11.50;;;10.30;;
30543;SDS011;43388;46.308;4.600;2023-04-03T04:37:43;11.18;;;10.07;;
30543;SDS011;43388;46.308;4.600;2023-04-03T04:40:09;12.52;;;11.23;;
30543;SDS011;43388;46.308;4.600;2023-04-03T04:42:35;12.25;;;11.15;;
30543;SDS011;43388;46.308;4.600;2023-04-03T04:45:01;13.95;;;12.57;;
30543;SDS011;43388;46.308;4.600;2023-04-03T04:47:28;14.13;;;12.57;;
30543;SDS011;43388;46.308;4.600;2023-04-03T04:49:54;22.55;;;12.63;;
30543;SDS011;43388;46.308;4.600;2023-04-03T04:52:20;17.05;;;13.93;;
30543;SDS011;43388;46.308;4.600;2023-04-03T04:54:46;41.83;;;16.17;;
30543;SDS011;43388;46.308;4.600;2023-04-03T04:57:12;15.90;;;13.63;;
30543;SDS011;43388;46.308;4.600;2023-04-03T04:59:38;21.00;;;15.25;;
30543;SDS011;43388;46.308;4.600;2023-04-03T05:02:04;22.05;;;14.77;;
30543;SDS011;43388;46.308;4.600;2023-04-03T05:04:30;15.50;;;14.07;;
30543;SDS011;43388;46.308;4.600;2023-04-03T05:06:58;14.88;;;13.35;;
30543;SDS011;43388;46.308;4.600;2023-04-03T05:09:24;14.65;;;13.30;;
30543;SDS011;43388;46.308;4.600;2023-04-03T05:11:50;15.55;;;13.88;;
30543;SDS011;43388;46.308;4.600;2023-04-03T05:14:16;14.60;;;13.05;;
30543;SDS011;43388;46.308;4.600;2023-04-03T05:16:42;12.77;;;11.57;;
30543;SDS011;43388;46.308;4.600;2023-04-03T05:19:08;14.25;;;12.85;;
30543;SDS011;43388;46.308;4.600;2023-04-03T05:21:35;12.82;;;11.73;;
30543;SDS011;43388;46.308;4.600;2023-04-03T05:24:01;14.65;;;13.35;;
30543;SDS011;43388;46.308;4.600;2023-04-03T05:26:27;13.98;;;12.68;;
30543;SDS011;43388;46.308;4.600;2023-04-03T05:28:53;14.27;;;12.85;;
30543;SDS011;43388;46.308;4.600;2023-04-03T05:31:20;14.65;;;13.35;;
30543;SDS011;43388;46.308;4.600;2023-04-03T05:33:46;14.20;;;12.93;;
30543;SDS011;43388;46.308;4.600;2023-04-03T05:36:12;16.17;;;14.68;;
30543;SDS011;43388;46.308;4.600;2023-04-03T05:38:38;27.33;;;16.17;;
30543;SDS011;43388;46.308;4.600;2023-04-03T05:41:04;27.17;;;16.30;;
30543;SDS011;43388;46.308;4.600;2023-04-03T05:43:30;14.88;;;13.48;;
30543;SDS011;43388;46.308;4.600;2023-04-03T05:45:57;29.55;;;14.73;;
30543;SDS011;43388;46.308;4.600;2023-04-03T05:48:23;14.70;;;13.30;;
30543;SDS011;43388;46.308;4.600;2023-04-03T05:50:50;13.75;;;12.43;;
30543;SDS011;43388;46.308;4.600;2023-04-03T05:53:25;34.55;;;13.52;;
30543;SDS011;43388;46.308;4.600;2023-04-03T05:55:52;27.08;;;15.13;;
30543;SDS011;43388;46.308;4.600;2023-04-03T05:58:18;14.63;;;13.15;;
30543;SDS011;43388;46.308;4.600;2023-04-03T06:00:45;121.07;;;17.70;;
30543;SDS011;43388;46.308;4.600;2023-04-03T06:03:11;13.75;;;12.35;;
30543;SDS011;43388;46.308;4.600;2023-04-03T06:05:37;18.42;;;13.95;;
30543;SDS011;43388;46.308;4.600;2023-04-03T06:08:03;15.05;;;13.45;;
30543;SDS011;43388;46.308;4.600;2023-04-03T06:10:30;34.20;;;14.57;;
30543;SDS011;43388;46.308;4.600;2023-04-03T06:12:56;19.30;;;14.65;;
30543;SDS011;43388;46.308;4.600;2023-04-03T06:15:22;34.97;;;14.35;;
30543;SDS011;43388;46.308;4.600;2023-04-03T06:17:48;66.63;;;16.88;;
30543;SDS011;43388;46.308;4.600;2023-04-03T06:20:15;26.60;;;13.77;;
30543;SDS011;43388;46.308;4.600;2023-04-03T06:22:41;17.73;;;15.98;;
30543;SDS011;43388;46.308;4.600;2023-04-03T06:25:07;232.48;;;22.80;;
30543;SDS011;43388;46.308;4.600;2023-04-03T06:27:34;19.33;;;14.70;;
30543;SDS011;43388;46.308;4.600;2023-04-03T06:30:00;60.67;;;15.23;;
30543;SDS011;43388;46.308;4.600;2023-04-03T06:32:26;16.25;;;14.65;;
30543;SDS011;43388;46.308;4.600;2023-04-03T06:34:52;27.73;;;13.80;;
30543;SDS011;43388;46.308;4.600;2023-04-03T06:37:19;51.67;;;16.52;;
30543;SDS011;43388;46.308;4.600;2023-04-03T06:39:46;14.60;;;13.20;;
30543;SDS011;43388;46.308;4.600;2023-04-03T06:42:12;13.38;;;12.07;;
30543;SDS011;43388;46.308;4.600;2023-04-03T06:44:38;13.65;;;12.25;;
30543;SDS011;43388;46.308;4.600;2023-04-03T06:47:04;13.93;;;10.82;;
30543;SDS011;43388;46.308;4.600;2023-04-03T06:49:30;12.23;;;11.10;;
30543;SDS011;43388;46.308;4.600;2023-04-03T06:51:57;19.77;;;11.55;;
30543;SDS011;43388;46.308;4.600;2023-04-03T06:54:23;14.00;;;11.85;;
30543;SDS011;43388;46.308;4.600;2023-04-03T06:56:49;38.88;;;12.57;;
30543;SDS011;43388;46.308;4.600;2023-04-03T06:59:16;16.38;;;12.38;;
30543;SDS011;43388;46.308;4.600;2023-04-03T07:01:42;83.70;;;13.63;;
30543;SDS011;43388;46.308;4.600;2023-04-03T07:04:08;13.90;;;10.93;;
30543;SDS011;43388;46.308;4.600;2023-04-03T07:06:34;14.68;;;11.43;;
30543;SDS011;43388;46.308;4.600;2023-04-03T07:09:00;16.25;;;11.18;;
30543;SDS011;43388;46.308;4.600;2023-04-03T12:58:46;6.78;;;6.28;;
30543;SDS011;43388;46.308;4.600;2023-04-03T13:01:13;6.25;;;5.85;;
30543;SDS011;43388;46.308;4.600;2023-04-03T13:03:44;7.15;;;6.55;;
30543;SDS011;43388;46.308;4.600;2023-04-03T13:06:13;6.90;;;6.40;;
30543;SDS011;43388;46.308;4.600;2023-04-03T13:08:48;7.18;;;6.55;;
30543;SDS011;43388;46.308;4.600;2023-04-03T13:11:14;19.75;;;15.25;;
30543;SDS011;43388;46.308;4.600;2023-04-03T13:13:53;27.10;;;20.38;;
30543;SDS011;43388;46.308;4.600;2023-04-03T13:16:19;30.67;;;21.65;;
30543;SDS011;43388;46.308;4.600;2023-04-03T13:18:50;21.45;;;16.60;;
30543;SDS011;43388;46.308;4.600;2023-04-03T13:21:19;11.65;;;9.93;;
30543;SDS011;43388;46.308;4.600;2023-04-03T13:23:48;9.18;;;8.38;;
30543;SDS011;43388;46.308;4.600;2023-04-03T13:26:17;9.75;;;8.90;;
30543;SDS011;43388;46.308;4.600;2023-04-03T13:28:44;9.27;;;8.43;;
30543;SDS011;43388;46.308;4.600;2023-04-03T13:36:26;9.07;;;8.38;;
30543;SDS011;43388;46.308;4.600;2023-04-03T13:39:17;9.27;;;8.32;;
30543;SDS011;43388;46.308;4.600;2023-04-03T13:41:53;9.77;;;9.02;;
30543;SDS011;43388;46.308;4.600;2023-04-03T13:46:48;11.88;;;9.07;;
30543;SDS011;43388;46.308;4.600;2023-04-03T13:49:21;8.07;;;7.47;;
30543;SDS011;43388;46.308;4.600;2023-04-03T13:51:48;15.07;;;13.48;;
30543;SDS011;43388;46.308;4.600;2023-04-03T13:54:19;21.00;;;17.17;;
30543;SDS011;43388;46.308;4.600;2023-04-03T13:56:45;13.18;;;11.88;;
30543;SDS011;43388;46.308;4.600;2023-04-03T14:04:10;9.40;;;8.70;;
30543;SDS011;43388;46.308;4.600;2023-04-03T14:06:37;8.63;;;7.85;;
30543;SDS011;43388;46.308;4.600;2023-04-03T14:09:03;8.75;;;8.05;;
30543;SDS011;43388;46.308;4.600;2023-04-03T14:11:30;8.77;;;8.07;;
30543;SDS011;43388;46.308;4.600;2023-04-03T14:13:57;8.45;;;7.65;;
30543;SDS011;43388;46.308;4.600;2023-04-03T14:16:25;8.15;;;7.38;;
30543;SDS011;43388;46.308;4.600;2023-04-03T14:18:52;7.53;;;6.93;;
30543;SDS011;43388;46.308;4.600;2023-04-03T14:21:19;6.90;;;6.30;;
30543;SDS011;43388;46.308;4.600;2023-04-03T14:23:46;7.35;;;6.72;;
30543;SDS011;43388;46.308;4.600;2023-04-03T14:26:16;6.93;;;6.43;;
30543;SDS011;43388;46.308;4.600;2023-04-03T14:28:43;6.22;;;5.72;;
30543;SDS011;43388;46.308;4.600;2023-04-03T14:31:10;6.38;;;5.78;;
30543;SDS011;43388;46.308;4.600;2023-04-03T14:33:37;6.53;;;5.93;;
30543;SDS011;43388;46.308;4.600;2023-04-03T14:36:37;6.38;;;5.85;;
30543;SDS011;43388;46.308;4.600;2023-04-03T14:38:56;6.93;;;6.22;;
30543;SDS011;43388;46.308;4.600;2023-04-03T14:41:23;6.68;;;6.07;;
30543;SDS011;43388;46.308;4.600;2023-04-03T14:43:49;7.07;;;6.57;;
30543;SDS011;43388;46.308;4.600;2023-04-03T14:46:17;6.47;;;5.97;;
30543;SDS011;43388;46.308;4.600;2023-04-03T14:48:43;7.35;;;6.75;;
30543;SDS011;43388;46.308;4.600;2023-04-03T14:51:13;6.88;;;6.35;;
30543;SDS011;43388;46.308;4.600;2023-04-03T14:53:40;6.85;;;6.35;;
30543;SDS011;43388;46.308;4.600;2023-04-03T14:56:25;7.80;;;5.88;;
30543;SDS011;43388;46.308;4.600;2023-04-03T14:59:02;6.07;;;5.47;;
30543;SDS011;43388;46.308;4.600;2023-04-03T15:01:28;9.00;;;6.30;;
30543;SDS011;43388;46.308;4.600;2023-04-03T15:03:54;7.18;;;6.53;;
30543;SDS011;43388;46.308;4.600;2023-04-03T15:06:20;7.47;;;6.90;;
30543;SDS011;43388;46.308;4.600;2023-04-03T15:08:47;6.10;;;5.50;;
30543;SDS011;43388;46.308;4.600;2023-04-03T15:11:13;6.63;;;6.00;;
30543;SDS011;43388;46.308;4.600;2023-04-03T15:13:40;7.10;;;5.85;;
30543;SDS011;43388;46.308;4.600;2023-04-03T15:16:11;6.45;;;5.80;;
30543;SDS011;43388;46.308;4.600;2023-04-03T15:18:38;5.40;;;4.88;;
30543;SDS011;43388;46.308;4.600;2023-04-03T15:21:04;6.38;;;5.93;;
30543;SDS011;43388;46.308;4.600;2023-04-03T15:23:31;5.22;;;4.93;;
30543;SDS011;43388;46.308;4.600;2023-04-03T15:25:57;4.95;;;4.55;;
30543;SDS011;43388;46.308;4.600;2023-04-03T15:28:30;5.55;;;5.05;;
30543;SDS011;43388;46.308;4.600;2023-04-03T15:30:58;5.35;;;4.95;;
30543;SDS011;43388;46.308;4.600;2023-04-03T15:33:24;5.78;;;5.15;;
30543;SDS011;43388;46.308;4.600;2023-04-03T15:35:50;6.45;;;5.65;;
30543;SDS011;43388;46.308;4.600;2023-04-03T15:38:16;7.45;;;5.03;;
30543;SDS011;43388;46.308;4.600;2023-04-03T15:40:42;5.45;;;5.00;;
30543;SDS011;43388;46.308;4.600;2023-04-03T15:43:09;5.93;;;5.30;;
30543;SDS011;43388;46.308;4.600;2023-04-03T15:45:35;5.47;;;4.78;;
30543;SDS011;43388;46.308;4.600;2023-04-03T15:48:02;6.25;;;4.93;;
30543;SDS011;43388;46.308;4.600;2023-04-03T15:50:28;5.45;;;5.03;;
30543;SDS011;43388;46.308;4.600;2023-04-03T15:52:55;5.43;;;4.93;;
30543;SDS011;43388;46.308;4.600;2023-04-03T15:55:24;4.82;;;4.47;;
30543;SDS011;43388;46.308;4.600;2023-04-03T15:57:51;5.07;;;4.47;;
30543;SDS011;43388;46.308;4.600;2023-04-03T16:00:17;5.15;;;4.68;;
30543;SDS011;43388;46.308;4.600;2023-04-03T16:02:44;4.93;;;4.63;;
30543;SDS011;43388;46.308;4.600;2023-04-03T16:05:11;5.20;;;4.53;;
30543;SDS011;43388;46.308;4.600;2023-04-03T16:07:40;7.07;;;4.63;;
30543;SDS011;43388;46.308;4.600;2023-04-03T16:10:07;5.03;;;4.70;;
30543;SDS011;43388;46.308;4.600;2023-04-03T16:12:34;6.32;;;5.53;;
30543;SDS011;43388;46.308;4.600;2023-04-03T16:15:00;12.35;;;10.32;;
30543;SDS011;43388;46.308;4.600;2023-04-03T16:17:26;7.43;;;6.65;;
30543;SDS011;43388;46.308;4.600;2023-04-03T16:19:53;6.18;;;5.68;;
30543;SDS011;43388;46.308;4.600;2023-04-03T16:22:21;6.35;;;5.75;;
30543;SDS011;43388;46.308;4.600;2023-04-03T16:24:47;6.00;;;5.60;;
30543;SDS011;43388;46.308;4.600;2023-04-03T16:27:14;5.85;;;5.35;;
30543;SDS011;43388;46.308;4.600;2023-04-03T16:29:40;5.40;;;4.93;;
30543;SDS011;43388;46.308;4.600;2023-04-03T16:32:06;7.70;;;5.68;;
30543;SDS011;43388;46.308;4.600;2023-04-03T16:34:32;6.55;;;6.05;;
30543;SDS011;43388;46.308;4.600;2023-04-03T16:36:58;8.05;;;5.35;;
30543;SDS011;43388;46.308;4.600;2023-04-03T16:39:24;6.32;;;5.82;;
30543;SDS011;43388;46.308;4.600;2023-04-03T16:41:50;5.80;;;5.18;;
30543;SDS011;43388;46.308;4.600;2023-04-03T16:44:16;5.85;;;5.25;;
30543;SDS011;43388;46.308;4.600;2023-04-03T16:46:43;4.97;;;4.63;;
30543;SDS011;43388;46.308;4.600;2023-04-03T16:49:09;5.53;;;5.13;;
30543;SDS011;43388;46.308;4.600;2023-04-03T16:51:35;5.40;;;5.00;;
30543;SDS011;43388;46.308;4.600;2023-04-03T16:54:01;5.00;;;4.60;;
30543;SDS011;43388;46.308;4.600;2023-04-03T16:56:27;6.85;;;5.00;;
30543;SDS011;43388;46.308;4.600;2023-04-03T16:58:53;8.57;;;5.55;;
30543;SDS011;43388;46.308;4.600;2023-04-03T17:01:20;5.63;;;5.20;;
30543;SDS011;43388;46.308;4.600;2023-04-03T17:03:46;8.80;;;5.68;;
30543;SDS011;43388;46.308;4.600;2023-04-03T17:06:16;5.32;;;4.93;;
30543;SDS011;43388;46.308;4.600;2023-04-03T17:08:46;6.00;;;4.53;;
30543;SDS011;43388;46.308;4.600;2023-04-03T17:11:13;5.00;;;4.40;;
30543;SDS011;43388;46.308;4.600;2023-04-03T17:13:39;8.70;;;5.30;;
30543;SDS011;43388;46.308;4.600;2023-04-03T17:16:06;6.88;;;4.55;;
30543;SDS011;43388;46.308;4.600;2023-04-03T17:18:32;6.13;;;4.80;;
30543;SDS011;43388;46.308;4.600;2023-04-03T17:21:00;12.93;;;11.63;;
30543;SDS011;43388;46.308;4.600;2023-04-03T17:23:26;11.13;;;8.00;;
30543;SDS011;43388;46.308;4.600;2023-04-03T17:25:53;8.23;;;6.60;;
30543;SDS011;43388;46.308;4.600;2023-04-03T17:28:20;14.25;;;11.13;;
30543;SDS011;43388;46.308;4.600;2023-04-03T17:30:55;7.65;;;6.82;;
30543;SDS011;43388;46.308;4.600;2023-04-03T17:33:22;6.45;;;5.95;;
30543;SDS011;43388;46.308;4.600;2023-04-03T17:35:48;6.32;;;5.57;;
30543;SDS011;43388;46.308;4.600;2023-04-03T17:38:14;7.40;;;6.70;;
30543;SDS011;43388;46.308;4.600;2023-04-03T17:40:40;6.78;;;6.25;;
30543;SDS011;43388;46.308;4.600;2023-04-03T17:43:08;7.28;;;5.93;;
30543;SDS011;43388;46.308;4.600;2023-04-03T17:45:35;6.13;;;5.65;;
30543;SDS011;43388;46.308;4.600;2023-04-03T17:48:01;5.63;;;5.15;;
30543;SDS011;43388;46.308;4.600;2023-04-03T17:50:27;5.80;;;5.28;;
30543;SDS011;43388;46.308;4.600;2023-04-03T17:52:54;5.82;;;5.43;;
30543;SDS011;43388;46.308;4.600;2023-04-03T17:55:20;5.10;;;4.70;;
30543;SDS011;43388;46.308;4.600;2023-04-03T17:57:46;4.65;;;4.35;;
30543;SDS011;43388;46.308;4.600;2023-04-03T18:00:12;6.13;;;5.53;;
30543;SDS011;43388;46.308;4.600;2023-04-03T18:02:40;5.32;;;4.18;;
30543;SDS011;43388;46.308;4.600;2023-04-03T18:05:06;7.20;;;6.55;;
30543;SDS011;43388;46.308;4.600;2023-04-03T18:07:33;5.80;;;5.40;;
30543;SDS011;43388;46.308;4.600;2023-04-03T18:10:00;5.50;;;4.85;;
30543;SDS011;43388;46.308;4.600;2023-04-03T18:12:28;8.40;;;7.80;;
30543;SDS011;43388;46.308;4.600;2023-04-03T18:14:56;6.57;;;5.93;;
30543;SDS011;43388;46.308;4.600;2023-04-03T18:17:22;5.63;;;5.22;;
30543;SDS011;43388;46.308;4.600;2023-04-03T18:19:48;4.93;;;4.53;;
30543;SDS011;43388;46.308;4.600;2023-04-03T18:22:16;5.15;;;4.65;;
30543;SDS011;43388;46.308;4.600;2023-04-03T18:24:45;4.68;;;4.28;;
30543;SDS011;43388;46.308;4.600;2023-04-03T18:27:14;4.78;;;4.45;;
30543;SDS011;43388;46.308;4.600;2023-04-03T18:29:41;5.07;;;4.63;;
30543;SDS011;43388;46.308;4.600;2023-04-03T18:32:07;5.65;;;5.25;;
30543;SDS011;43388;46.308;4.600;2023-04-03T18:34:34;5.65;;;4.95;;
30543;SDS011;43388;46.308;4.600;2023-04-03T18:37:00;5.53;;;4.97;;
30543;SDS011;43388;46.308;4.600;2023-04-03T18:39:27;5.47;;;5.10;;
30543;SDS011;43388;46.308;4.600;2023-04-03T18:41:53;5.40;;;4.70;;
30543;SDS011;43388;46.308;4.600;2023-04-03T18:44:20;5.32;;;4.93;;
30543;SDS011;43388;46.308;4.600;2023-04-03T18:46:47;6.10;;;5.65;;
30543;SDS011;43388;46.308;4.600;2023-04-03T18:49:13;6.40;;;5.82;;
30543;SDS011;43388;46.308;4.600;2023-04-03T18:51:40;6.00;;;5.60;;
30543;SDS011;43388;46.308;4.600;2023-04-03T18:54:06;6.70;;;6.07;;
30543;SDS011;43388;46.308;4.600;2023-04-03T18:56:34;6.80;;;6.28;;
30543;SDS011;43388;46.308;4.600;2023-04-03T18:59:00;6.40;;;5.90;;
30543;SDS011;43388;46.308;4.600;2023-04-03T19:01:26;6.53;;;5.95;;
30543;SDS011;43388;46.308;4.600;2023-04-03T19:03:52;6.25;;;5.80;;
30543;SDS011;43388;46.308;4.600;2023-04-03T19:06:18;6.97;;;6.38;;
30543;SDS011;43388;46.308;4.600;2023-04-03T19:08:44;6.55;;;5.82;;
30543;SDS011;43388;46.308;4.600;2023-04-03T19:11:11;6.70;;;6.10;;
30543;SDS011;43388;46.308;4.600;2023-04-03T19:13:37;5.93;;;5.40;;
30543;SDS011;43388;46.308;4.600;2023-04-03T19:16:03;6.03;;;5.53;;
30543;SDS011;43388;46.308;4.600;2023-04-03T19:18:29;7.20;;;6.40;;
30543;SDS011;43388;46.308;4.600;2023-04-03T19:20:56;7.32;;;6.47;;
30543;SDS011;43388;46.308;4.600;2023-04-03T19:23:23;6.22;;;5.68;;
30543;SDS011;43388;46.308;4.600;2023-04-03T19:25:59;7.00;;;6.38;;
30543;SDS011;43388;46.308;4.600;2023-04-03T19:28:25;6.45;;;5.95;;
30543;SDS011;43388;46.308;4.600;2023-04-03T19:30:51;6.30;;;5.80;;
30543;SDS011;43388;46.308;4.600;2023-04-03T19:33:18;5.72;;;5.10;;
30543;SDS011;43388;46.308;4.600;2023-04-03T19:35:44;7.10;;;6.47;;
30543;SDS011;43388;46.308;4.600;2023-04-03T19:38:10;5.60;;;5.20;;
30543;SDS011;43388;46.308;4.600;2023-04-03T19:40:36;6.35;;;5.75;;
30543;SDS011;43388;46.308;4.600;2023-04-03T19:43:08;6.07;;;5.68;;
30543;SDS011;43388;46.308;4.600;2023-04-03T19:45:34;6.20;;;5.65;;
30543;SDS011;43388;46.308;4.600;2023-04-03T19:48:01;5.88;;;5.40;;
30543;SDS011;43388;46.308;4.600;2023-04-03T19:50:27;6.15;;;5.65;;
30543;SDS011;43388;46.308;4.600;2023-04-03T19:52:53;6.53;;;6.03;;
30543;SDS011;43388;46.308;4.600;2023-04-03T19:55:19;7.43;;;5.80;;
30543;SDS011;43388;46.308;4.600;2023-04-03T19:57:45;6.65;;;6.07;;
30543;SDS011;43388;46.308;4.600;2023-04-03T20:00:12;6.95;;;6.30;;
30543;SDS011;43388;46.308;4.600;2023-04-03T20:02:38;6.10;;;5.57;;
30543;SDS011;43388;46.308;4.600;2023-04-03T20:05:04;6.75;;;6.15;;
30543;SDS011;43388;46.308;4.600;2023-04-03T20:07:30;5.90;;;5.47;;
30543;SDS011;43388;46.308;4.600;2023-04-03T20:09:56;6.28;;;5.68;;
30543;SDS011;43388;46.308;4.600;2023-04-03T20:12:22;6.57;;;6.03;;
30543;SDS011;43388;46.308;4.600;2023-04-03T20:14:48;7.97;;;5.68;;
30543;SDS011;43388;46.308;4.600;2023-04-03T20:17:15;7.88;;;7.28;;
30543;SDS011;43388;46.308;4.600;2023-04-03T20:19:41;6.18;;;5.68;;
30543;SDS011;43388;46.308;4.600;2023-04-03T20:22:07;5.80;;;5.40;;
30543;SDS011;43388;46.308;4.600;2023-04-03T20:24:33;6.70;;;6.10;;
30543;SDS011;43388;46.308;4.600;2023-04-03T20:26:59;14.02;;;7.13;;
30543;SDS011;43388;46.308;4.600;2023-04-03T20:29:26;6.05;;;5.55;;
30543;SDS011;43388;46.308;4.600;2023-04-03T20:31:52;5.82;;;5.28;;
30543;SDS011;43388;46.308;4.600;2023-04-03T20:34:19;7.05;;;6.53;;
30543;SDS011;43388;46.308;4.600;2023-04-03T20:36:45;6.30;;;5.80;;
30543;SDS011;43388;46.308;4.600;2023-04-03T20:39:12;6.38;;;5.95;;
30543;SDS011;43388;46.308;4.600;2023-04-03T20:41:38;6.93;;;6.43;;